sensor_id;sensor_type;location;lat;lon;timestamp;P1;durP1;ratioP1;P2;durP2;ratioP2
57067;SDS011;43391;47.448;18.904;2023-07-31T00:02:18;8.80;;;7.13;;
57067;SDS011;43391;47.448;18.904;2023-07-31T00:04:43;12.02;;;8.02;;
57067;SDS011;43391;47.448;18.904;2023-07-31T00:07:09;9.65;;;7.82;;
57067;SDS011;43391;47.448;18.904;2023-07-31T00:09:34;8.88;;;7.97;;
57067;SDS011;43391;47.448;18.904;2023-07-31T00:11:59;8.05;;;6.75;;
57067;SDS011;43391;47.448;18.904;2023-07-31T00:14:25;8.25;;;7.45;;
57067;SDS011;43391;47.448;18.904;2023-07-31T00:16:50;10.90;;;7.18;;
57067;SDS011;43391;47.448;18.904;2023-07-31T00:19:16;7.78;;;6.82;;
57067;SDS011;43391;47.448;18.904;2023-07-31T00:21:41;9.38;;;7.45;;
57067;SDS011;43391;47.448;18.904;2023-07-31T00:24:06;10.75;;;7.38;;
57067;SDS011;43391;47.448;18.904;2023-07-31T00:26:32;10.07;;;7.15;;
57067;SDS011;43391;47.448;18.904;2023-07-31T00:28:57;8.32;;;7.53;;
57067;SDS011;43391;47.448;18.904;2023-07-31T00:31:22;10.75;;;7.53;;
57067;SDS011;43391;47.448;18.904;2023-07-31T00:33:48;8.10;;;7.07;;
57067;SDS011;43391;47.448;18.904;2023-07-31T00:36:13;10.95;;;8.63;;
57067;SDS011;43391;47.448;18.904;2023-07-31T00:38:39;8.07;;;7.28;;
57067;SDS011;43391;47.448;18.904;2023-07-31T00:41:04;9.38;;;7.50;;
57067;SDS011;43391;47.448;18.904;2023-07-31T00:43:29;9.52;;;7.30;;
57067;SDS011;43391;47.448;18.904;2023-07-31T00:45:55;10.82;;;7.75;;
57067;SDS011;43391;47.448;18.904;2023-07-31T00:48:20;9.35;;;7.72;;
57067;SDS011;43391;47.448;18.904;2023-07-31T00:50:46;11.18;;;8.63;;
57067;SDS011;43391;47.448;18.904;2023-07-31T00:53:12;9.50;;;8.18;;
57067;SDS011;43391;47.448;18.904;2023-07-31T00:55:38;8.70;;;7.47;;
57067;SDS011;43391;47.448;18.904;2023-07-31T00:58:04;9.10;;;8.07;;
57067;SDS011;43391;47.448;18.904;2023-07-31T01:00:29;10.70;;;7.90;;
57067;SDS011;43391;47.448;18.904;2023-07-31T01:02:55;9.80;;;7.43;;
57067;SDS011;43391;47.448;18.904;2023-07-31T01:05:21;12.75;;;7.90;;
57067;SDS011;43391;47.448;18.904;2023-07-31T01:08:02;9.32;;;6.88;;
57067;SDS011;43391;47.448;18.904;2023-07-31T01:10:37;12.18;;;8.00;;
57067;SDS011;43391;47.448;18.904;2023-07-31T01:13:11;9.32;;;7.57;;
57067;SDS011;43391;47.448;18.904;2023-07-31T01:15:37;10.20;;;7.35;;
57067;SDS011;43391;47.448;18.904;2023-07-31T01:18:03;7.95;;;7.05;;
57067;SDS011;43391;47.448;18.904;2023-07-31T01:20:29;10.13;;;7.60;;
57067;SDS011;43391;47.448;18.904;2023-07-31T01:31:10;9.25;;;7.80;;
57067;SDS011;43391;47.448;18.904;2023-07-31T01:33:38;9.20;;;7.68;;
57067;SDS011;43391;47.448;18.904;2023-07-31T01:36:04;10.20;;;8.00;;
57067;SDS011;43391;47.448;18.904;2023-07-31T01:38:30;13.63;;;8.07;;
57067;SDS011;43391;47.448;18.904;2023-07-31T01:40:56;9.20;;;7.75;;
57067;SDS011;43391;47.448;18.904;2023-07-31T01:43:21;10.48;;;7.72;;
57067;SDS011;43391;47.448;18.904;2023-07-31T01:45:46;10.63;;;8.45;;
57067;SDS011;43391;47.448;18.904;2023-07-31T01:48:12;11.63;;;7.40;;
57067;SDS011;43391;47.448;18.904;2023-07-31T01:50:37;11.25;;;8.13;;
57067;SDS011;43391;47.448;18.904;2023-07-31T01:53:02;11.60;;;7.70;;
57067;SDS011;43391;47.448;18.904;2023-07-31T01:55:28;9.38;;;7.28;;
57067;SDS011;43391;47.448;18.904;2023-07-31T01:57:53;7.00;;;6.05;;
57067;SDS011;43391;47.448;18.904;2023-07-31T02:00:19;9.68;;;5.82;;
57067;SDS011;43391;47.448;18.904;2023-07-31T02:02:44;7.28;;;5.45;;
57067;SDS011;43391;47.448;18.904;2023-07-31T02:05:09;7.28;;;5.20;;
57067;SDS011;43391;47.448;18.904;2023-07-31T02:07:35;6.55;;;4.93;;
57067;SDS011;43391;47.448;18.904;2023-07-31T02:10:00;5.18;;;4.57;;
57067;SDS011;43391;47.448;18.904;2023-07-31T02:12:26;6.60;;;4.75;;
57067;SDS011;43391;47.448;18.904;2023-07-31T02:14:51;5.97;;;4.25;;
57067;SDS011;43391;47.448;18.904;2023-07-31T02:17:16;5.15;;;4.65;;
57067;SDS011;43391;47.448;18.904;2023-07-31T02:19:42;5.90;;;4.63;;
57067;SDS011;43391;47.448;18.904;2023-07-31T02:22:07;6.25;;;4.72;;
57067;SDS011;43391;47.448;18.904;2023-07-31T02:24:32;12.23;;;4.80;;
57067;SDS011;43391;47.448;18.904;2023-07-31T02:26:58;5.82;;;4.20;;
57067;SDS011;43391;47.448;18.904;2023-07-31T02:29:23;5.53;;;4.70;;
57067;SDS011;43391;47.448;18.904;2023-07-31T02:31:48;6.90;;;4.57;;
57067;SDS011;43391;47.448;18.904;2023-07-31T02:34:14;6.13;;;4.70;;
57067;SDS011;43391;47.448;18.904;2023-07-31T02:36:39;5.95;;;4.10;;
57067;SDS011;43391;47.448;18.904;2023-07-31T02:39:04;5.90;;;4.72;;
57067;SDS011;43391;47.448;18.904;2023-07-31T02:41:30;5.25;;;4.40;;
57067;SDS011;43391;47.448;18.904;2023-07-31T02:43:55;7.70;;;4.35;;
57067;SDS011;43391;47.448;18.904;2023-07-31T02:46:20;5.65;;;4.30;;
57067;SDS011;43391;47.448;18.904;2023-07-31T02:48:49;6.05;;;4.53;;
57067;SDS011;43391;47.448;18.904;2023-07-31T02:51:14;6.63;;;4.18;;
57067;SDS011;43391;47.448;18.904;2023-07-31T02:53:40;6.20;;;4.20;;
57067;SDS011;43391;47.448;18.904;2023-07-31T02:56:05;6.82;;;4.18;;
57067;SDS011;43391;47.448;18.904;2023-07-31T02:58:30;5.93;;;3.78;;
57067;SDS011;43391;47.448;18.904;2023-07-31T03:00:57;6.40;;;4.40;;
57067;SDS011;43391;47.448;18.904;2023-07-31T03:03:23;4.47;;;4.07;;
57067;SDS011;43391;47.448;18.904;2023-07-31T03:05:49;11.57;;;4.60;;
57067;SDS011;43391;47.448;18.904;2023-07-31T03:08:14;6.57;;;4.18;;
57067;SDS011;43391;47.448;18.904;2023-07-31T03:10:39;4.93;;;3.80;;
57067;SDS011;43391;47.448;18.904;2023-07-31T03:13:05;4.53;;;3.47;;
57067;SDS011;43391;47.448;18.904;2023-07-31T03:15:30;5.68;;;3.55;;
57067;SDS011;43391;47.448;18.904;2023-07-31T03:17:55;5.10;;;3.58;;
57067;SDS011;43391;47.448;18.904;2023-07-31T03:20:21;6.63;;;3.72;;
57067;SDS011;43391;47.448;18.904;2023-07-31T03:22:46;5.68;;;3.50;;
57067;SDS011;43391;47.448;18.904;2023-07-31T03:25:11;4.35;;;3.58;;
57067;SDS011;43391;47.448;18.904;2023-07-31T03:27:37;6.88;;;4.18;;
57067;SDS011;43391;47.448;18.904;2023-07-31T03:30:03;3.90;;;3.40;;
57067;SDS011;43391;47.448;18.904;2023-07-31T03:32:28;8.77;;;4.00;;
57067;SDS011;43391;47.448;18.904;2023-07-31T03:34:54;6.70;;;4.00;;
57067;SDS011;43391;47.448;18.904;2023-07-31T03:37:19;3.95;;;3.28;;
57067;SDS011;43391;47.448;18.904;2023-07-31T03:39:44;5.05;;;3.97;;
57067;SDS011;43391;47.448;18.904;2023-07-31T03:42:10;5.20;;;3.60;;
57067;SDS011;43391;47.448;18.904;2023-07-31T03:44:35;4.93;;;3.70;;
57067;SDS011;43391;47.448;18.904;2023-07-31T03:47:00;4.75;;;3.75;;
57067;SDS011;43391;47.448;18.904;2023-07-31T03:49:26;5.75;;;3.83;;
57067;SDS011;43391;47.448;18.904;2023-07-31T03:51:51;5.57;;;4.25;;
57067;SDS011;43391;47.448;18.904;2023-07-31T03:54:17;7.15;;;4.50;;
57067;SDS011;43391;47.448;18.904;2023-07-31T03:56:42;5.70;;;3.72;;
57067;SDS011;43391;47.448;18.904;2023-07-31T03:59:07;5.55;;;4.13;;
57067;SDS011;43391;47.448;18.904;2023-07-31T04:01:33;5.25;;;3.80;;
57067;SDS011;43391;47.448;18.904;2023-07-31T04:03:58;5.32;;;3.75;;
57067;SDS011;43391;47.448;18.904;2023-07-31T04:06:23;6.40;;;4.00;;
57067;SDS011;43391;47.448;18.904;2023-07-31T04:08:49;6.55;;;4.15;;
57067;SDS011;43391;47.448;18.904;2023-07-31T04:11:14;4.78;;;3.88;;
57067;SDS011;43391;47.448;18.904;2023-07-31T04:13:39;7.18;;;3.92;;
57067;SDS011;43391;47.448;18.904;2023-07-31T04:16:05;4.22;;;3.75;;
57067;SDS011;43391;47.448;18.904;2023-07-31T04:18:30;8.15;;;3.63;;
57067;SDS011;43391;47.448;18.904;2023-07-31T04:20:57;5.55;;;3.15;;
57067;SDS011;43391;47.448;18.904;2023-07-31T04:23:26;6.72;;;3.70;;
57067;SDS011;43391;47.448;18.904;2023-07-31T04:25:51;3.80;;;3.40;;
57067;SDS011;43391;47.448;18.904;2023-07-31T04:28:17;4.47;;;3.63;;
57067;SDS011;43391;47.448;18.904;2023-07-31T04:30:42;6.15;;;3.42;;
57067;SDS011;43391;47.448;18.904;2023-07-31T04:33:07;9.23;;;3.90;;
57067;SDS011;43391;47.448;18.904;2023-07-31T04:35:33;6.13;;;4.15;;
57067;SDS011;43391;47.448;18.904;2023-07-31T04:37:58;6.18;;;3.95;;
57067;SDS011;43391;47.448;18.904;2023-07-31T04:40:24;5.50;;;3.42;;
57067;SDS011;43391;47.448;18.904;2023-07-31T04:42:49;5.25;;;3.60;;
57067;SDS011;43391;47.448;18.904;2023-07-31T04:45:14;6.85;;;3.95;;
57067;SDS011;43391;47.448;18.904;2023-07-31T04:47:40;4.60;;;3.53;;
57067;SDS011;43391;47.448;18.904;2023-07-31T04:50:05;8.50;;;4.20;;
57067;SDS011;43391;47.448;18.904;2023-07-31T04:52:31;4.47;;;3.90;;
57067;SDS011;43391;47.448;18.904;2023-07-31T04:54:56;6.60;;;3.47;;
57067;SDS011;43391;47.448;18.904;2023-07-31T04:57:21;7.10;;;4.10;;
57067;SDS011;43391;47.448;18.904;2023-07-31T04:59:47;5.32;;;3.55;;
57067;SDS011;43391;47.448;18.904;2023-07-31T05:02:12;4.28;;;3.33;;
57067;SDS011;43391;47.448;18.904;2023-07-31T05:04:38;5.07;;;2.83;;
57067;SDS011;43391;47.448;18.904;2023-07-31T05:07:04;4.28;;;2.72;;
57067;SDS011;43391;47.448;18.904;2023-07-31T05:09:29;4.85;;;2.78;;
57067;SDS011;43391;47.448;18.904;2023-07-31T05:11:54;6.03;;;2.90;;
57067;SDS011;43391;47.448;18.904;2023-07-31T05:14:20;5.35;;;3.22;;
57067;SDS011;43391;47.448;18.904;2023-07-31T05:16:45;4.63;;;2.85;;
57067;SDS011;43391;47.448;18.904;2023-07-31T05:19:11;6.68;;;2.60;;
57067;SDS011;43391;47.448;18.904;2023-07-31T05:21:36;4.45;;;2.88;;
57067;SDS011;43391;47.448;18.904;2023-07-31T05:24:02;5.20;;;2.78;;
57067;SDS011;43391;47.448;18.904;2023-07-31T05:26:27;8.68;;;2.90;;
57067;SDS011;43391;47.448;18.904;2023-07-31T05:28:53;7.85;;;2.90;;
57067;SDS011;43391;47.448;18.904;2023-07-31T05:31:18;4.72;;;2.63;;
57067;SDS011;43391;47.448;18.904;2023-07-31T05:33:43;5.03;;;2.75;;
57067;SDS011;43391;47.448;18.904;2023-07-31T05:36:09;5.03;;;2.63;;
57067;SDS011;43391;47.448;18.904;2023-07-31T05:38:34;9.90;;;2.70;;
57067;SDS011;43391;47.448;18.904;2023-07-31T05:40:59;8.43;;;2.80;;
57067;SDS011;43391;47.448;18.904;2023-07-31T05:43:25;5.00;;;2.65;;
57067;SDS011;43391;47.448;18.904;2023-07-31T05:45:50;5.57;;;2.70;;
57067;SDS011;43391;47.448;18.904;2023-07-31T05:48:16;4.03;;;2.55;;
57067;SDS011;43391;47.448;18.904;2023-07-31T05:50:42;4.03;;;2.85;;
57067;SDS011;43391;47.448;18.904;2023-07-31T05:53:08;7.25;;;2.50;;
57067;SDS011;43391;47.448;18.904;2023-07-31T05:55:35;6.40;;;2.78;;
57067;SDS011;43391;47.448;18.904;2023-07-31T05:58:00;7.72;;;3.03;;
57067;SDS011;43391;47.448;18.904;2023-07-31T06:00:26;4.00;;;2.60;;
57067;SDS011;43391;47.448;18.904;2023-07-31T06:02:52;5.80;;;2.30;;
57067;SDS011;43391;47.448;18.904;2023-07-31T06:05:17;11.13;;;2.78;;
57067;SDS011;43391;47.448;18.904;2023-07-31T06:07:43;7.30;;;2.53;;
57067;SDS011;43391;47.448;18.904;2023-07-31T06:10:08;6.63;;;2.55;;
57067;SDS011;43391;47.448;18.904;2023-07-31T06:12:34;5.43;;;2.67;;
57067;SDS011;43391;47.448;18.904;2023-07-31T06:15:00;5.82;;;2.53;;
57067;SDS011;43391;47.448;18.904;2023-07-31T06:17:27;6.10;;;2.92;;
57067;SDS011;43391;47.448;18.904;2023-07-31T06:19:53;6.22;;;2.42;;
57067;SDS011;43391;47.448;18.904;2023-07-31T06:22:19;5.85;;;2.60;;
57067;SDS011;43391;47.448;18.904;2023-07-31T06:24:45;9.98;;;2.90;;
57067;SDS011;43391;47.448;18.904;2023-07-31T06:27:11;6.10;;;2.10;;
57067;SDS011;43391;47.448;18.904;2023-07-31T06:29:36;4.53;;;2.60;;
57067;SDS011;43391;47.448;18.904;2023-07-31T06:32:02;5.90;;;2.25;;
57067;SDS011;43391;47.448;18.904;2023-07-31T06:34:28;3.10;;;2.28;;
57067;SDS011;43391;47.448;18.904;2023-07-31T06:36:53;4.25;;;2.17;;
57067;SDS011;43391;47.448;18.904;2023-07-31T06:39:20;7.50;;;2.95;;
57067;SDS011;43391;47.448;18.904;2023-07-31T06:41:46;4.95;;;2.50;;
57067;SDS011;43391;47.448;18.904;2023-07-31T06:44:11;3.15;;;2.40;;
57067;SDS011;43391;47.448;18.904;2023-07-31T06:46:36;6.47;;;2.83;;
57067;SDS011;43391;47.448;18.904;2023-07-31T06:49:02;3.92;;;2.20;;
57067;SDS011;43391;47.448;18.904;2023-07-31T06:51:28;3.83;;;2.30;;
57067;SDS011;43391;47.448;18.904;2023-07-31T06:53:53;6.32;;;2.47;;
57067;SDS011;43391;47.448;18.904;2023-07-31T06:56:19;7.15;;;2.92;;
57067;SDS011;43391;47.448;18.904;2023-07-31T06:58:44;6.15;;;2.72;;
57067;SDS011;43391;47.448;18.904;2023-07-31T07:01:09;7.05;;;2.55;;
57067;SDS011;43391;47.448;18.904;2023-07-31T07:03:35;8.85;;;2.75;;
57067;SDS011;43391;47.448;18.904;2023-07-31T07:06:00;3.33;;;2.30;;
57067;SDS011;43391;47.448;18.904;2023-07-31T07:08:26;3.95;;;2.60;;
57067;SDS011;43391;47.448;18.904;2023-07-31T07:10:51;4.85;;;2.58;;
57067;SDS011;43391;47.448;18.904;2023-07-31T07:13:16;4.55;;;2.47;;
57067;SDS011;43391;47.448;18.904;2023-07-31T07:15:43;5.97;;;2.65;;
57067;SDS011;43391;47.448;18.904;2023-07-31T07:18:13;4.57;;;2.40;;
57067;SDS011;43391;47.448;18.904;2023-07-31T07:20:39;4.95;;;2.53;;
57067;SDS011;43391;47.448;18.904;2023-07-31T07:23:04;6.85;;;2.83;;
57067;SDS011;43391;47.448;18.904;2023-07-31T07:25:29;5.57;;;2.53;;
57067;SDS011;43391;47.448;18.904;2023-07-31T07:27:55;3.67;;;2.30;;
57067;SDS011;43391;47.448;18.904;2023-07-31T07:30:20;5.10;;;2.60;;
57067;SDS011;43391;47.448;18.904;2023-07-31T07:32:45;6.05;;;2.50;;
57067;SDS011;43391;47.448;18.904;2023-07-31T07:35:11;4.63;;;2.55;;
57067;SDS011;43391;47.448;18.904;2023-07-31T07:37:36;4.50;;;2.67;;
57067;SDS011;43391;47.448;18.904;2023-07-31T07:40:02;5.15;;;2.83;;
57067;SDS011;43391;47.448;18.904;2023-07-31T07:42:27;6.95;;;2.97;;
57067;SDS011;43391;47.448;18.904;2023-07-31T07:44:53;5.00;;;2.97;;
57067;SDS011;43391;47.448;18.904;2023-07-31T07:47:18;5.47;;;3.30;;
57067;SDS011;43391;47.448;18.904;2023-07-31T07:49:44;4.35;;;2.50;;
57067;SDS011;43391;47.448;18.904;2023-07-31T07:52:09;4.05;;;2.40;;
57067;SDS011;43391;47.448;18.904;2023-07-31T07:54:34;3.67;;;2.42;;
57067;SDS011;43391;47.448;18.904;2023-07-31T07:57:00;7.00;;;2.72;;
57067;SDS011;43391;47.448;18.904;2023-07-31T07:59:25;3.35;;;2.35;;
57067;SDS011;43391;47.448;18.904;2023-07-31T08:01:51;4.35;;;2.05;;
57067;SDS011;43391;47.448;18.904;2023-07-31T08:04:16;3.90;;;2.38;;
57067;SDS011;43391;47.448;18.904;2023-07-31T08:06:41;6.90;;;2.78;;
57067;SDS011;43391;47.448;18.904;2023-07-31T08:09:07;5.70;;;2.78;;
57067;SDS011;43391;47.448;18.904;2023-07-31T08:11:33;3.63;;;2.22;;
57067;SDS011;43391;47.448;18.904;2023-07-31T08:13:59;5.55;;;2.85;;
57067;SDS011;43391;47.448;18.904;2023-07-31T08:16:24;5.05;;;2.40;;
57067;SDS011;43391;47.448;18.904;2023-07-31T08:18:50;5.25;;;2.45;;
57067;SDS011;43391;47.448;18.904;2023-07-31T08:21:15;5.70;;;2.80;;
57067;SDS011;43391;47.448;18.904;2023-07-31T08:23:40;6.40;;;3.13;;
57067;SDS011;43391;47.448;18.904;2023-07-31T08:26:06;6.43;;;2.85;;
57067;SDS011;43391;47.448;18.904;2023-07-31T08:28:32;4.85;;;2.58;;
57067;SDS011;43391;47.448;18.904;2023-07-31T08:30:57;8.45;;;2.72;;
57067;SDS011;43391;47.448;18.904;2023-07-31T08:33:22;6.35;;;2.50;;
57067;SDS011;43391;47.448;18.904;2023-07-31T08:35:48;9.48;;;3.25;;
57067;SDS011;43391;47.448;18.904;2023-07-31T08:38:13;6.82;;;2.72;;
57067;SDS011;43391;47.448;18.904;2023-07-31T08:40:39;6.72;;;2.63;;
57067;SDS011;43391;47.448;18.904;2023-07-31T08:43:05;5.50;;;2.90;;
57067;SDS011;43391;47.448;18.904;2023-07-31T08:45:31;6.10;;;2.80;;
57067;SDS011;43391;47.448;18.904;2023-07-31T08:47:57;4.22;;;2.53;;
57067;SDS011;43391;47.448;18.904;2023-07-31T08:50:23;6.93;;;2.58;;
57067;SDS011;43391;47.448;18.904;2023-07-31T08:52:50;6.25;;;2.80;;
57067;SDS011;43391;47.448;18.904;2023-07-31T08:55:15;3.50;;;2.05;;
57067;SDS011;43391;47.448;18.904;2023-07-31T08:57:41;5.90;;;2.78;;
57067;SDS011;43391;47.448;18.904;2023-07-31T09:00:08;5.63;;;2.40;;
57067;SDS011;43391;47.448;18.904;2023-07-31T09:02:41;5.78;;;2.53;;
57067;SDS011;43391;47.448;18.904;2023-07-31T09:05:11;6.38;;;2.80;;
57067;SDS011;43391;47.448;18.904;2023-07-31T09:07:37;6.10;;;2.03;;
57067;SDS011;43391;47.448;18.904;2023-07-31T09:10:03;11.82;;;3.03;;
57067;SDS011;43391;47.448;18.904;2023-07-31T09:12:29;7.38;;;2.70;;
57067;SDS011;43391;47.448;18.904;2023-07-31T09:14:58;6.10;;;2.63;;
57067;SDS011;43391;47.448;18.904;2023-07-31T09:17:28;6.68;;;2.78;;
57067;SDS011;43391;47.448;18.904;2023-07-31T09:20:20;5.00;;;2.33;;
57067;SDS011;43391;47.448;18.904;2023-07-31T09:22:46;3.72;;;2.50;;
57067;SDS011;43391;47.448;18.904;2023-07-31T09:30:19;4.53;;;2.30;;
57067;SDS011;43391;47.448;18.904;2023-07-31T09:32:45;5.60;;;3.08;;
57067;SDS011;43391;47.448;18.904;2023-07-31T09:35:21;7.65;;;2.40;;
57067;SDS011;43391;47.448;18.904;2023-07-31T09:37:55;5.40;;;2.28;;
57067;SDS011;43391;47.448;18.904;2023-07-31T09:40:25;5.07;;;2.78;;
57067;SDS011;43391;47.448;18.904;2023-07-31T09:43:02;7.68;;;2.72;;
57067;SDS011;43391;47.448;18.904;2023-07-31T09:45:29;5.90;;;2.60;;
57067;SDS011;43391;47.448;18.904;2023-07-31T09:47:55;7.72;;;3.03;;
57067;SDS011;43391;47.448;18.904;2023-07-31T09:50:22;5.75;;;2.72;;
57067;SDS011;43391;47.448;18.904;2023-07-31T09:52:49;6.03;;;2.05;;
57067;SDS011;43391;47.448;18.904;2023-07-31T09:55:15;9.57;;;2.17;;
57067;SDS011;43391;47.448;18.904;2023-07-31T09:57:41;3.83;;;2.00;;
57067;SDS011;43391;47.448;18.904;2023-07-31T10:00:11;7.35;;;2.47;;
57067;SDS011;43391;47.448;18.904;2023-07-31T10:02:37;3.67;;;2.42;;
57067;SDS011;43391;47.448;18.904;2023-07-31T10:05:04;5.50;;;2.10;;
57067;SDS011;43391;47.448;18.904;2023-07-31T10:07:30;8.25;;;2.53;;
57067;SDS011;43391;47.448;18.904;2023-07-31T10:09:59;5.50;;;2.05;;
57067;SDS011;43391;47.448;18.904;2023-07-31T10:12:25;3.58;;;1.90;;
57067;SDS011;43391;47.448;18.904;2023-07-31T10:14:55;5.13;;;2.00;;
57067;SDS011;43391;47.448;18.904;2023-07-31T10:17:21;5.13;;;2.30;;
57067;SDS011;43391;47.448;18.904;2023-07-31T10:19:48;8.43;;;2.50;;
57067;SDS011;43391;47.448;18.904;2023-07-31T10:22:14;8.90;;;2.38;;
57067;SDS011;43391;47.448;18.904;2023-07-31T10:24:42;8.32;;;2.20;;
57067;SDS011;43391;47.448;18.904;2023-07-31T10:27:08;6.00;;;2.22;;
57067;SDS011;43391;47.448;18.904;2023-07-31T10:29:35;6.72;;;2.03;;
57067;SDS011;43391;47.448;18.904;2023-07-31T10:32:03;5.97;;;1.98;;
57067;SDS011;43391;47.448;18.904;2023-07-31T10:34:33;4.53;;;2.20;;
57067;SDS011;43391;47.448;18.904;2023-07-31T10:39:58;7.18;;;2.45;;
57067;SDS011;43391;47.448;18.904;2023-07-31T10:42:33;7.10;;;2.22;;
57067;SDS011;43391;47.448;18.904;2023-07-31T10:45:07;3.55;;;1.83;;
57067;SDS011;43391;47.448;18.904;2023-07-31T10:47:38;6.40;;;2.00;;
57067;SDS011;43391;47.448;18.904;2023-07-31T10:50:10;3.60;;;1.67;;
57067;SDS011;43391;47.448;18.904;2023-07-31T10:52:47;5.30;;;1.88;;
57067;SDS011;43391;47.448;18.904;2023-07-31T10:57:52;10.07;;;3.05;;
57067;SDS011;43391;47.448;18.904;2023-07-31T11:03:07;3.85;;;1.70;;
57067;SDS011;43391;47.448;18.904;2023-07-31T11:08:22;5.55;;;1.80;;
57067;SDS011;43391;47.448;18.904;2023-07-31T11:11:07;6.90;;;2.35;;
57067;SDS011;43391;47.448;18.904;2023-07-31T11:16:07;6.45;;;2.00;;
57067;SDS011;43391;47.448;18.904;2023-07-31T11:18:32;6.05;;;2.55;;
57067;SDS011;43391;47.448;18.904;2023-07-31T11:20:58;4.63;;;1.98;;
57067;SDS011;43391;47.448;18.904;2023-07-31T11:23:23;4.13;;;1.63;;
57067;SDS011;43391;47.448;18.904;2023-07-31T11:25:49;5.50;;;2.08;;
57067;SDS011;43391;47.448;18.904;2023-07-31T11:28:16;4.85;;;1.98;;
57067;SDS011;43391;47.448;18.904;2023-07-31T11:30:42;6.45;;;1.98;;
57067;SDS011;43391;47.448;18.904;2023-07-31T11:33:10;4.75;;;2.03;;
57067;SDS011;43391;47.448;18.904;2023-07-31T11:38:29;5.37;;;2.03;;
57067;SDS011;43391;47.448;18.904;2023-07-31T11:40:57;7.07;;;1.85;;
57067;SDS011;43391;47.448;18.904;2023-07-31T11:43:23;4.57;;;2.03;;
57067;SDS011;43391;47.448;18.904;2023-07-31T11:45:50;10.27;;;1.85;;
57067;SDS011;43391;47.448;18.904;2023-07-31T11:48:20;6.72;;;2.38;;
57067;SDS011;43391;47.448;18.904;2023-07-31T11:50:53;2.20;;;1.73;;
57067;SDS011;43391;47.448;18.904;2023-07-31T11:53:25;2.00;;;1.42;;
57067;SDS011;43391;47.448;18.904;2023-07-31T11:56:00;5.95;;;1.92;;
57067;SDS011;43391;47.448;18.904;2023-07-31T11:58:29;4.00;;;1.85;;
57067;SDS011;43391;47.448;18.904;2023-07-31T12:00:56;6.25;;;1.80;;
57067;SDS011;43391;47.448;18.904;2023-07-31T12:03:23;4.40;;;2.08;;
57067;SDS011;43391;47.448;18.904;2023-07-31T12:05:49;2.40;;;1.35;;
57067;SDS011;43391;47.448;18.904;2023-07-31T12:08:15;7.80;;;1.83;;
57067;SDS011;43391;47.448;18.904;2023-07-31T12:10:41;3.20;;;2.00;;
57067;SDS011;43391;47.448;18.904;2023-07-31T12:13:10;4.07;;;1.77;;
57067;SDS011;43391;47.448;18.904;2023-07-31T12:15:41;3.38;;;1.60;;
57067;SDS011;43391;47.448;18.904;2023-07-31T12:18:12;7.35;;;2.08;;
57067;SDS011;43391;47.448;18.904;2023-07-31T12:25:32;8.77;;;2.55;;
57067;SDS011;43391;47.448;18.904;2023-07-31T12:28:03;9.48;;;2.13;;
57067;SDS011;43391;47.448;18.904;2023-07-31T12:30:34;5.03;;;2.10;;
57067;SDS011;43391;47.448;18.904;2023-07-31T12:33:03;2.58;;;1.85;;
57067;SDS011;43391;47.448;18.904;2023-07-31T12:35:36;5.38;;;1.90;;
57067;SDS011;43391;47.448;18.904;2023-07-31T12:38:03;4.85;;;2.10;;
57067;SDS011;43391;47.448;18.904;2023-07-31T12:40:28;4.45;;;2.28;;
57067;SDS011;43391;47.448;18.904;2023-07-31T12:42:54;6.85;;;2.08;;
57067;SDS011;43391;47.448;18.904;2023-07-31T12:45:19;2.90;;;2.10;;
57067;SDS011;43391;47.448;18.904;2023-07-31T12:47:46;7.68;;;2.15;;
57067;SDS011;43391;47.448;18.904;2023-07-31T12:50:11;6.07;;;1.88;;
57067;SDS011;43391;47.448;18.904;2023-07-31T12:52:36;7.38;;;2.25;;
57067;SDS011;43391;47.448;18.904;2023-07-31T12:55:02;3.47;;;2.00;;
57067;SDS011;43391;47.448;18.904;2023-07-31T12:57:27;6.40;;;2.15;;
57067;SDS011;43391;47.448;18.904;2023-07-31T12:59:53;4.85;;;2.33;;
57067;SDS011;43391;47.448;18.904;2023-07-31T13:02:18;2.85;;;1.70;;
57067;SDS011;43391;47.448;18.904;2023-07-31T13:04:44;7.32;;;2.30;;
57067;SDS011;43391;47.448;18.904;2023-07-31T13:07:09;5.13;;;1.90;;
57067;SDS011;43391;47.448;18.904;2023-07-31T13:09:34;4.15;;;2.08;;
57067;SDS011;43391;47.448;18.904;2023-07-31T13:12:00;4.50;;;2.03;;
57067;SDS011;43391;47.448;18.904;2023-07-31T13:14:25;3.58;;;1.92;;
57067;SDS011;43391;47.448;18.904;2023-07-31T13:16:50;4.65;;;2.33;;
57067;SDS011;43391;47.448;18.904;2023-07-31T13:19:15;5.03;;;2.03;;
57067;SDS011;43391;47.448;18.904;2023-07-31T13:21:41;6.22;;;2.38;;
57067;SDS011;43391;47.448;18.904;2023-07-31T13:24:06;7.72;;;2.15;;
57067;SDS011;43391;47.448;18.904;2023-07-31T13:26:31;3.17;;;2.05;;
57067;SDS011;43391;47.448;18.904;2023-07-31T13:28:57;8.75;;;2.25;;
57067;SDS011;43391;47.448;18.904;2023-07-31T13:31:22;5.38;;;2.17;;
57067;SDS011;43391;47.448;18.904;2023-07-31T13:33:48;5.43;;;1.83;;
57067;SDS011;43391;47.448;18.904;2023-07-31T13:36:14;6.15;;;2.25;;
57067;SDS011;43391;47.448;18.904;2023-07-31T13:38:39;4.88;;;2.28;;
57067;SDS011;43391;47.448;18.904;2023-07-31T13:41:04;4.63;;;1.80;;
57067;SDS011;43391;47.448;18.904;2023-07-31T13:43:30;6.72;;;1.83;;
57067;SDS011;43391;47.448;18.904;2023-07-31T13:45:56;3.35;;;1.83;;
57067;SDS011;43391;47.448;18.904;2023-07-31T13:48:21;5.47;;;2.08;;
57067;SDS011;43391;47.448;18.904;2023-07-31T13:50:47;4.50;;;1.90;;
57067;SDS011;43391;47.448;18.904;2023-07-31T13:53:12;6.50;;;2.22;;
57067;SDS011;43391;47.448;18.904;2023-07-31T13:55:38;6.40;;;1.90;;
57067;SDS011;43391;47.448;18.904;2023-07-31T13:58:04;4.07;;;2.10;;
57067;SDS011;43391;47.448;18.904;2023-07-31T14:00:29;3.58;;;1.83;;
57067;SDS011;43391;47.448;18.904;2023-07-31T14:02:54;7.50;;;2.22;;
57067;SDS011;43391;47.448;18.904;2023-07-31T14:05:20;4.15;;;2.00;;
57067;SDS011;43391;47.448;18.904;2023-07-31T14:07:45;5.93;;;2.42;;
57067;SDS011;43391;47.448;18.904;2023-07-31T14:10:11;4.15;;;1.98;;
57067;SDS011;43391;47.448;18.904;2023-07-31T14:12:36;5.45;;;2.15;;
57067;SDS011;43391;47.448;18.904;2023-07-31T14:15:01;4.68;;;1.80;;
57067;SDS011;43391;47.448;18.904;2023-07-31T14:17:28;8.45;;;2.63;;
57067;SDS011;43391;47.448;18.904;2023-07-31T14:19:53;6.93;;;2.42;;
57067;SDS011;43391;47.448;18.904;2023-07-31T14:22:31;8.35;;;2.10;;
57067;SDS011;43391;47.448;18.904;2023-07-31T14:24:58;6.35;;;2.13;;
57067;SDS011;43391;47.448;18.904;2023-07-31T14:27:24;4.40;;;2.28;;
57067;SDS011;43391;47.448;18.904;2023-07-31T14:29:49;5.05;;;2.03;;
57067;SDS011;43391;47.448;18.904;2023-07-31T14:32:14;4.28;;;2.30;;
57067;SDS011;43391;47.448;18.904;2023-07-31T14:34:40;6.07;;;2.30;;
57067;SDS011;43391;47.448;18.904;2023-07-31T14:37:06;5.05;;;2.55;;
57067;SDS011;43391;47.448;18.904;2023-07-31T14:39:31;7.30;;;2.03;;
57067;SDS011;43391;47.448;18.904;2023-07-31T14:41:56;5.72;;;2.30;;
57067;SDS011;43391;47.448;18.904;2023-07-31T14:44:22;5.20;;;1.98;;
57067;SDS011;43391;47.448;18.904;2023-07-31T14:46:47;5.57;;;1.83;;
57067;SDS011;43391;47.448;18.904;2023-07-31T14:49:13;3.08;;;1.90;;
57067;SDS011;43391;47.448;18.904;2023-07-31T14:51:39;6.40;;;2.22;;
57067;SDS011;43391;47.448;18.904;2023-07-31T14:54:04;8.05;;;2.35;;
57067;SDS011;43391;47.448;18.904;2023-07-31T14:56:29;3.03;;;1.73;;
57067;SDS011;43391;47.448;18.904;2023-07-31T14:58:55;6.47;;;2.35;;
57067;SDS011;43391;47.448;18.904;2023-07-31T15:01:20;5.55;;;2.20;;
57067;SDS011;43391;47.448;18.904;2023-07-31T15:03:46;8.02;;;2.10;;